Dades meteomassalio
Diari Summary for Marc 22, 2017 Units:  Metric    English   Both
« Previous Day
Next Day »
Diari Semanal Mensual Anual Personalitzat
  Maxima: Minima: Mijana:
Temperatura: -17.8 °C -14.7 °C -11.6 °C
Rosada: -17.8 °C -16.1 °C -14.7 °C
Humitat: Humidity % 55 % 69 %
Velocitat del vent: 0 km/h 0 km/h 11.3 km/h
Racha vent: 0 km/h - -
Vent:- - South
Pressio: 0 hPa 34086.9 hPa -
Pluja: 0 mm    
Historical Graphs
 
 
Tabular Data for Marc 22, 2017
Time Temperature Dew Point Pressure Wind Wind Speed Wind Gust Humidity Rainfall Rate (Hourly) solar Conditions
-17.8 °C -17.8 °C 0 hPa Calm     Humidity % 0 mm SolarRadiationWatts/m^2 W/m2 Conditions
00:03 -11.7 °C -15.1 °C 34428.8 hPa West 29.8 km/h 29.8 km/h 66 % 0 mm 0.0 W/m2 CLR
00:08 -11.7 °C -15.1 °C 34428.8 hPa WNW 32.8 km/h 32.8 km/h 66 % 0 mm 0.0 W/m2 CLR
00:13 -11.8 °C -15.2 °C 34428.8 hPa West 29.8 km/h 29.8 km/h 66 % 0 mm 0.0 W/m2 CLR
00:18 -11.7 °C -15.1 °C 34428.8 hPa West 35.7 km/h 35.7 km/h 66 % 0 mm 0.0 W/m2 CLR
00:23 -11.8 °C -15.1 °C 34428.8 hPa WNW 29.8 km/h 29.8 km/h 67 % 0 mm 0.0 W/m2 CLR
00:29 -11.8 °C -15.1 °C 34428.8 hPa West 26.9 km/h 26.9 km/h 67 % 0 mm 0.0 W/m2 CLR
00:34 -11.8 °C -15.1 °C 34428.8 hPa West 26.9 km/h 26.9 km/h 67 % 0 mm 0.0 W/m2 CLR
00:39 -11.8 °C -15.1 °C 34418.7 hPa West 32.8 km/h 32.8 km/h 67 % 0 mm 0.0 W/m2 CLR
00:44 -11.8 °C -14.9 °C 34418.7 hPa West 32.8 km/h 32.8 km/h 68 % 0 mm 0.0 W/m2 CLR
00:49 -11.8 °C -15 °C 34418.7 hPa West 29.8 km/h 29.8 km/h 68 % 0 mm 0.0 W/m2 CLR
00:54 -11.8 °C -15 °C 34418.7 hPa West 35.7 km/h 35.7 km/h 68 % 0 mm 0.0 W/m2 CLR
01:04 -11.9 °C -15.1 °C 34418.7 hPa West 29.8 km/h 29.8 km/h 68 % 0 mm 0.0 W/m2 CLR
01:09 -11.9 °C -15.1 °C 34418.7 hPa West 26.9 km/h 26.9 km/h 68 % 0 mm 0.0 W/m2 CLR
01:14 -11.9 °C -14.9 °C 34418.7 hPa WNW 26.9 km/h 26.9 km/h 69 % 0 mm 0.0 W/m2 CLR
01:19 -11.9 °C -14.9 °C 34418.7 hPa WNW 23.8 km/h 23.8 km/h 69 % 0 mm 0.0 W/m2 CLR
01:24 -12 °C -15 °C 34418.7 hPa WNW 26.9 km/h 26.9 km/h 69 % 0 mm 0.0 W/m2 CLR
01:29 -12 °C -15.1 °C 34418.7 hPa WNW 29.8 km/h 29.8 km/h 69 % 0 mm 0.0 W/m2 CLR
01:34 -12 °C -15.1 °C 34405.1 hPa WNW 29.8 km/h 29.8 km/h 69 % 0 mm 0.0 W/m2 CLR
01:39 -11.9 °C -14.9 °C 34405.1 hPa WNW 29.8 km/h 29.8 km/h 69 % 0 mm 0.0 W/m2 CLR
01:44 -11.9 °C -15.1 °C 34405.1 hPa WNW 29.8 km/h 29.8 km/h 68 % 0 mm 0.0 W/m2 CLR
01:49 -11.9 °C -14.9 °C 34405.1 hPa WNW 23.8 km/h 23.8 km/h 69 % 0 mm 0.0 W/m2 CLR
01:54 -12 °C -15 °C 34405.1 hPa NW 23.8 km/h 23.8 km/h 69 % 0 mm 0.0 W/m2 CLR
01:59 -12.1 °C -15.1 °C 34405.1 hPa WNW 23.8 km/h 23.8 km/h 69 % 0 mm 0.0 W/m2 CLR
02:04 -12.1 °C -15.2 °C 34405.1 hPa WNW 26.9 km/h 26.9 km/h 69 % 0 mm 0.0 W/m2 CLR
02:09 -12.1 °C -15.1 °C 34405.1 hPa WNW 31.1 km/h 31.1 km/h 69 % 0 mm 0.0 W/m2 CLR
02:14 -12.1 °C -15.1 °C 34405.1 hPa WNW 20.9 km/h 20.9 km/h 69 % 0 mm 0.0 W/m2 CLR
02:19 -12.1 °C -15.2 °C 34405.1 hPa WNW 9 km/h 9 km/h 69 % 0 mm 0.0 W/m2 CLR
02:24 -12.2 °C -15.2 °C 34405.1 hPa West 9 km/h 9 km/h 69 % 0 mm 0.0 W/m2 CLR
02:29 -12.2 °C -15.2 °C 34405.1 hPa WNW 17.9 km/h 17.9 km/h 69 % 0 mm 0.0 W/m2 CLR
02:34 -12.2 °C -15.2 °C 34405.1 hPa West 29.8 km/h 29.8 km/h 69 % 0 mm 0.0 W/m2 CLR
02:39 -12.2 °C -15.2 °C 34405.1 hPa West 25.9 km/h 25.9 km/h 69 % 0 mm 0.0 W/m2 CLR
02:40 -12.2 °C -15.2 °C 34405.1 hPa West 26.9 km/h 26.9 km/h 69 % 0 mm 0.0 W/m2 CLR
02:45 -12.2 °C -15.2 °C 34405.1 hPa WSW 23.8 km/h 23.8 km/h 69 % 0 mm 0.0 W/m2 CLR
02:50 -12.2 °C -15.2 °C 34395 hPa West 18.2 km/h 18.2 km/h 69 % 0 mm 0.0 W/m2 CLR
02:55 -12.3 °C -15.2 °C 34395 hPa WSW 20.9 km/h 20.9 km/h 70 % 0 mm 0.0 W/m2 CLR
03:00 -12.3 °C -15.2 °C 34395 hPa West 9 km/h 9 km/h 70 % 0 mm 0.0 W/m2 CLR
03:05 -12.4 °C -15.3 °C 34395 hPa WSW 11.9 km/h 11.9 km/h 70 % 0 mm 0.0 W/m2 CLR
03:10 -12.6 °C -15.4 °C 34384.8 hPa WSW 11.9 km/h 11.9 km/h 71 % 0 mm 0.0 W/m2 CLR
03:15 -12.7 °C -15.3 °C 34384.8 hPa West 9 km/h 9 km/h 72 % 0 mm 0.0 W/m2 CLR
03:20 -12.7 °C -15.3 °C 34384.8 hPa West 11.9 km/h 11.9 km/h 73 % 0 mm 0.0 W/m2 CLR
03:25 -12.7 °C -15.3 °C 34384.8 hPa West 9 km/h 9 km/h 73 % 0 mm 0.0 W/m2 CLR
03:30 -12.9 °C -15.4 °C 34384.8 hPa WNW 11.9 km/h 11.9 km/h 73 % 0 mm 0.0 W/m2 CLR
03:35 -13 °C -15.4 °C 34384.8 hPa West 9 km/h 9 km/h 74 % 0 mm 0.0 W/m2 CLR
03:40 -12.9 °C -15.3 °C 34384.8 hPa West 9 km/h 9 km/h 74 % 0 mm 0.0 W/m2 CLR
03:45 -12.8 °C -15.3 °C 34384.8 hPa WSW 9 km/h 9 km/h 74 % 0 mm 0.0 W/m2 CLR
03:50 -12.8 °C -15.4 °C 34384.8 hPa Calm     73 % 0 mm 0.0 W/m2 CLR
03:55 -12.9 °C -15.4 °C 34384.8 hPa Calm     73 % 0 mm 0.0 W/m2 CLR
04:00 -13.1 °C -15.6 °C 34384.8 hPa Calm     74 % 0 mm 0.0 W/m2 CLR
04:05 -13.4 °C -15.7 °C 34384.8 hPa Calm     75 % 0 mm 0.0 W/m2 CLR
04:10 -13.6 °C -15.7 °C 34384.8 hPa Calm     77 % 0 mm 0.0 W/m2 CLR
04:15 -13.7 °C -15.7 °C 34384.8 hPa Calm     78 % 0 mm 0.0 W/m2 CLR
04:20 -13.7 °C -15.6 °C 34384.8 hPa Calm     79 % 0 mm 0.0 W/m2 CLR
04:25 -13.8 °C -15.7 °C 34384.8 hPa Calm     79 % 0 mm 0.0 W/m2 CLR
04:30 -14.1 °C -15.9 °C 34371.3 hPa Calm     80 % 0 mm 0.0 W/m2 CLR
04:35 -14.2 °C -15.8 °C 34371.3 hPa Calm     82 % 0 mm 0.0 W/m2 CLR
04:40 -14.2 °C -15.7 °C 34371.3 hPa Calm     83 % 0 mm 0.0 W/m2 CLR
04:45 -14.1 °C -15.7 °C 34371.3 hPa Calm     82 % 0 mm 0.0 W/m2 CLR
04:50 -14.2 °C -15.7 °C 34371.3 hPa Calm     82 % 0 mm 0.0 W/m2 CLR
04:55 -14.3 °C -15.8 °C 34371.3 hPa Calm     82 % 0 mm 0.0 W/m2 CLR
05:00 -14.3 °C -15.9 °C 34371.3 hPa Calm     82 % 0 mm 0.0 W/m2 CLR
05:05 -14.4 °C -15.9 °C 34371.3 hPa Calm     83 % 0 mm 0.0 W/m2 CLR
05:10 -14.4 °C -15.9 °C 34371.3 hPa Calm     83 % 0 mm 0.0 W/m2 CLR
05:15 -14.5 °C -16 °C 34371.3 hPa Calm     83 % 0 mm 0.0 W/m2 CLR
05:20 -14.6 °C -15.9 °C 34371.3 hPa Calm     84 % 0 mm 0.0 W/m2 CLR
05:25 -14.7 °C -16.1 °C 34371.3 hPa Calm     84 % 0 mm 0.0 W/m2 CLR
05:30 -14.7 °C -15.9 °C 34361.1 hPa Calm     85 % 0 mm 0.0 W/m2 CLR
05:35 -14.7 °C -16 °C 34361.1 hPa Calm     85 % 0 mm 0.0 W/m2 CLR
05:40 -14.7 °C -16 °C 34361.1 hPa Calm     85 % 0 mm 0.0 W/m2 CLR
05:45 -14.7 °C -16 °C 34361.1 hPa Calm     85 % 0 mm 0.0 W/m2 CLR
05:50 -14.7 °C -16 °C 34361.1 hPa Calm     85 % 0 mm 0.0 W/m2 CLR
05:55 -14.7 °C -15.9 °C 34361.1 hPa Calm     85 % 0 mm 0.0 W/m2 CLR
06:01 -14.7 °C -15.9 °C 34361.1 hPa Calm     85 % 0 mm 0.0 W/m2 CLR
06:06 -14.7 °C -16 °C 34361.1 hPa Calm     85 % 0 mm 0.0 W/m2 CLR
06:11 -14.7 °C -15.9 °C 34361.1 hPa Calm     86 % 0 mm 0.0 W/m2 CLR
06:16 -14.7 °C -15.9 °C 34361.1 hPa Calm     86 % 0 mm 0.0 W/m2 CLR
06:20 -14.7 °C -15.9 °C 34347.6 hPa Calm     86 % 0 mm 0.0 W/m2 CLR
06:26 -14.7 °C -15.9 °C 34361.1 hPa Calm     86 % 0 mm 0.0 W/m2 CLR
06:31 -14.7 °C -15.9 °C 34361.1 hPa Calm     86 % 0 mm 0.0 W/m2 CLR
06:36 -14.7 °C -15.9 °C 34347.6 hPa Calm     86 % 0 mm 0.0 W/m2 CLR
06:41 -14.7 °C -15.9 °C 34347.6 hPa Calm     86 % 0 mm 0.0 W/m2 CLR
06:46 -14.7 °C -15.8 °C 34347.6 hPa Calm     87 % 0 mm 0.0 W/m2 CLR
06:51 -14.7 °C -15.8 °C 34347.6 hPa Calm     87 % 0 mm 0.0 W/m2 OVC
06:56 -14.6 °C -15.7 °C 34347.6 hPa Calm     87 % 0 mm 7.0 W/m2 OVC
07:01 -14.6 °C -15.7 °C 34347.6 hPa Calm     87 % 0 mm 11.0 W/m2 OVC
07:06 -14.6 °C -15.7 °C 34347.6 hPa Calm     87 % 0 mm 12.0 W/m2 BKN
07:11 -14.5 °C -15.7 °C 34347.6 hPa Calm     86 % 0 mm 16.0 W/m2 BKN
07:16 -14.5 °C -15.7 °C 34347.6 hPa Calm     86 % 0 mm 18.0 W/m2 BKN
07:22 -14.4 °C -15.5 °C 34347.6 hPa Calm     87 % 0 mm 21.0 W/m2 BKN
07:27 -14.3 °C -15.4 °C 34347.6 hPa Calm     86 % 0 mm 18.0 W/m2 BKN
07:32 -14.2 °C -15.4 °C 34347.6 hPa Calm     86 % 0 mm 16.0 W/m2 BKN
07:37 -14.2 °C -15.4 °C 34361.1 hPa Calm     85 % 0 mm 16.0 W/m2 BKN
07:42 -14.2 °C -15.4 °C 34347.6 hPa Calm     85 % 0 mm 19.0 W/m2 BKN
07:47 -14.2 °C -15.4 °C 34361.1 hPa Calm     85 % 0 mm 23.0 W/m2 BKN
07:52 -14.1 °C -15.3 °C 34361.1 hPa Calm     86 % 0 mm 26.0 W/m2 BKN
07:57 -14.1 °C -15.3 °C 34361.1 hPa Calm     86 % 0 mm 26.0 W/m2 BKN
08:02 -14.1 °C -15.2 °C 34361.1 hPa Calm     86 % 0 mm 26.0 W/m2 BKN
08:07 -14.1 °C -15.2 °C 34361.1 hPa Calm     86 % 0 mm 28.0 W/m2 BKN
08:12 -14 °C -15.2 °C 34361.1 hPa Calm     86 % 0 mm 30.0 W/m2 BKN
08:17 -13.9 °C -15.2 °C 34361.1 hPa Calm     86 % 0 mm 30.0 W/m2 BKN
08:22 -13.9 °C -15.1 °C 34361.1 hPa Calm     86 % 0 mm 35.0 W/m2 BKN
08:27 -13.8 °C -15.2 °C 34371.3 hPa Calm     85 % 0 mm 58.0 W/m2 BKN
08:32 -13.8 °C -15.1 °C 34361.1 hPa Calm     85 % 0 mm 69.0 W/m2 SCT
08:37 -13.8 °C -15.1 °C 34361.1 hPa Calm     85 % 0 mm 63.0 W/m2 SCT
08:42 -13.7 °C -15.1 °C 34361.1 hPa Calm     85 % 0 mm 70.0 W/m2 FEW
08:47 -13.7 °C -14.9 °C 34371.3 hPa Calm     85 % 0 mm 81.0 W/m2 FEW
08:52 -13.7 °C -14.9 °C 34361.1 hPa Calm     85 % 0 mm 81.0 W/m2 FEW
08:57 -13.6 °C -14.9 °C 34361.1 hPa Calm     85 % 0 mm 79.0 W/m2 FEW
09:02 -13.5 °C -14.9 °C 34361.1 hPa Calm     84 % 0 mm 88.0 W/m2 FEW
09:07 -13.4 °C -14.8 °C 34361.1 hPa Calm     84 % 0 mm 90.0 W/m2 CLR
09:12 -13.3 °C -14.8 °C 34361.1 hPa Calm     84 % 0 mm 90.0 W/m2 CLR
09:17 -13.3 °C -14.7 °C 34371.3 hPa Calm     84 % 0 mm 109.0 W/m2 CLR
09:22 -13.2 °C -14.7 °C 34371.3 hPa Calm     83 % 0 mm 127.0 W/m2 CLR
09:27 -13.1 °C -14.5 °C 34371.3 hPa Calm     84 % 0 mm 142.0 W/m2 CLR
09:32 -12.9 °C -14.5 °C 34361.1 hPa Calm     83 % 0 mm 158.0 W/m2 CLR
09:37 -12.8 °C -14.4 °C 34371.3 hPa Calm     82 % 0 mm 167.0 W/m2 CLR
09:42 -12.7 °C -14.5 °C 34361.1 hPa Calm     81 % 0 mm 186.0 W/m2 CLR
09:47 -12.6 °C -14.2 °C 34361.1 hPa Calm     82 % 0 mm 241.0 W/m2 CLR
09:57 -12.2 °C -14.1 °C 34361.1 hPa Calm     80 % 0 mm 274.0 W/m2 CLR
10:02 -12.1 °C -14 °C 34361.1 hPa Calm     79 % 0 mm 396.0 W/m2 CLR
10:07 -11.8 °C -13.9 °C 34361.1 hPa Calm     77 % 0 mm 323.0 W/m2 CLR
10:12 -11.6 °C -13.9 °C 34361.1 hPa Calm     75 % 0 mm 255.0 W/m2 CLR
10:17 -11.3 °C -14.5 °C 34361.1 hPa NW 26.9 km/h 26.9 km/h 68 % 0 mm 227.0 W/m2 CLR
10:22 -11.2 °C -14.7 °C 34361.1 hPa NNW 15 km/h 15 km/h 65 % 0 mm 229.0 W/m2 CLR
10:27 -11.2 °C -14.9 °C 34347.6 hPa NW 15 km/h 15 km/h 63 % 0 mm 221.0 W/m2 CLR
10:32 -11.2 °C -14.8 °C 34347.6 hPa NW 9 km/h 9 km/h 64 % 0 mm 234.0 W/m2 CLR
10:37 -11.1 °C -14.8 °C 34337.4 hPa Calm     64 % 0 mm 262.0 W/m2 CLR
10:42 -10.9 °C -14.6 °C 34337.4 hPa North 9 km/h 9 km/h 64 % 0 mm 267.0 W/m2 CLR
10:47 -10.9 °C -14.7 °C 34347.6 hPa North 11.9 km/h 11.9 km/h 63 % 0 mm 243.0 W/m2 CLR
10:52 -10.9 °C -14.8 °C 34347.6 hPa Calm     62 % 0 mm 234.0 W/m2 CLR
10:57 -10.9 °C -14.7 °C 34347.6 hPa NW 11.9 km/h 11.9 km/h 63 % 0 mm 232.0 W/m2 CLR
11:02 -10.9 °C -14.9 °C 34347.6 hPa NNW 9 km/h 9 km/h 62 % 0 mm 225.0 W/m2 CLR
11:07 -11 °C -14.8 °C 34347.6 hPa Calm     63 % 0 mm 218.0 W/m2 CLR
11:12 -10.9 °C -14.6 °C 34337.4 hPa Calm     64 % 0 mm 218.0 W/m2 CLR
11:17 -10.9 °C -14.7 °C 34337.4 hPa Calm     63 % 0 mm 216.0 W/m2 CLR
11:22 -10.9 °C -14.7 °C 34337.4 hPa Calm     63 % 0 mm 218.0 W/m2 CLR
11:27 -10.9 °C -14.8 °C 34347.6 hPa NE 9 km/h 9 km/h 62 % 0 mm 230.0 W/m2 CLR
11:32 -10.9 °C -14.8 °C 34337.4 hPa Calm     62 % 0 mm 237.0 W/m2 CLR
11:37 -10.9 °C -14.8 °C 34337.4 hPa Calm     62 % 0 mm 227.0 W/m2 CLR
11:42 -10.9 °C -14.8 °C 34337.4 hPa North 9 km/h 9 km/h 62 % 0 mm 214.0 W/m2 CLR
11:47 -10.9 °C -14.8 °C 34337.4 hPa Calm     62 % 0 mm 213.0 W/m2 CLR
11:52 -10.9 °C -15 °C 34337.4 hPa NE 11.9 km/h 11.9 km/h 61 % 0 mm 220.0 W/m2 CLR
11:57 -10.9 °C -15 °C 34327.3 hPa Calm     61 % 0 mm 220.0 W/m2 CLR
12:02 -10.9 °C -15.1 °C 34327.3 hPa ENE 11.9 km/h 11.9 km/h 60 % 0 mm 234.0 W/m2 CLR
12:07 -10.9 °C -15.1 °C 34327.3 hPa NE 9 km/h 9 km/h 60 % 0 mm 241.0 W/m2 CLR
12:12 -10.9 °C -15.2 °C 34327.3 hPa NNE 10.3 km/h 10.3 km/h 59 % 0 mm 250.0 W/m2 CLR
12:17 -10.9 °C -15 °C 34327.3 hPa NE 9 km/h 9 km/h 61 % 0 mm 276.0 W/m2 CLR
12:22 -10.9 °C -15.1 °C 34327.3 hPa NE 11.9 km/h 11.9 km/h 60 % 0 mm 327.0 W/m2 CLR
12:27 -10.8 °C -15 °C 34327.3 hPa ENE 15 km/h 15 km/h 60 % 0 mm 346.0 W/m2 CLR
12:32 -10.8 °C -15 °C 34327.3 hPa NE 15 km/h 15 km/h 60 % 0 mm 327.0 W/m2 CLR
12:37 -10.8 °C -15.1 °C 34313.7 hPa NNE 11.9 km/h 11.9 km/h 60 % 0 mm 329.0 W/m2 CLR
12:42 -10.8 °C -15.1 °C 34303.6 hPa East 15 km/h 15 km/h 60 % 0 mm 373.0 W/m2 CLR
12:52 -10.8 °C -15.1 °C 34303.6 hPa ENE 11.9 km/h 11.9 km/h 60 % 0 mm 406.0 W/m2 CLR
12:57 -10.7 °C -14.8 °C 34303.6 hPa NE 11.9 km/h 11.9 km/h 61 % 0 mm 439.0 W/m2 CLR
13:02 -10.6 °C -14.9 °C 34303.6 hPa ENE 9 km/h 9 km/h 59 % 0 mm 376.0 W/m2 CLR
13:07 -10.5 °C -14.9 °C 34303.6 hPa ENE 7.7 km/h 7.7 km/h 59 % 0 mm 388.0 W/m2 CLR
13:12 -10.5 °C -14.8 °C 34303.6 hPa NNE 15 km/h 15 km/h 59 % 0 mm 378.0 W/m2 CLR
13:17 -10.5 °C -14.8 °C 34293.4 hPa NE 9 km/h 9 km/h 59 % 0 mm 320.0 W/m2 CLR
13:22 -10.5 °C -14.6 °C 34293.4 hPa Calm     61 % 0 mm 292.0 W/m2 CLR
13:27 -10.6 °C -14.6 °C 34293.4 hPa NE 11.9 km/h 11.9 km/h 61 % 0 mm 330.0 W/m2 CLR
13:32 -10.6 °C -14.8 °C 34279.9 hPa NE 9 km/h 9 km/h 60 % 0 mm 302.0 W/m2 CLR
13:37 -10.6 °C -14.8 °C 34279.9 hPa NE 9 km/h 9 km/h 60 % 0 mm 295.0 W/m2 CLR
13:42 -10.6 °C -14.8 °C 34279.9 hPa Calm     60 % 0 mm 292.0 W/m2 CLR
13:47 -10.7 °C -14.7 °C 34279.9 hPa North 9 km/h   61 % 0 mm 334.0 W/m2 CLR
13:52 -10.6 °C -14.7 °C 34279.9 hPa Calm     61 % 0 mm 316.0 W/m2 CLR
13:57 -10.5 °C -14.9 °C 34279.9 hPa ENE 6 km/h   59 % 0 mm 299.0 W/m2 CLR
14:02 -10.4 °C -14.8 °C 34269.7 hPa NE 9 km/h 9 km/h 59 % 0 mm 301.0 W/m2 CLR
14:07 -10.4 °C -14.8 °C 34269.7 hPa NE 9 km/h 9 km/h 59 % 0 mm 260.0 W/m2 CLR
14:12 -10.4 °C -14.8 °C 34256.2 hPa Calm     59 % 0 mm 271.0 W/m2 CLR
14:17 -10.4 °C -14.9 °C 34256.2 hPa NE 6 km/h   58 % 0 mm 248.0 W/m2 CLR
14:22 -10.4 °C -14.8 °C 34256.2 hPa NE 9 km/h 9 km/h 59 % 0 mm 272.0 W/m2 CLR
14:28 -10.4 °C -14.7 °C 34256.2 hPa NNE 9 km/h 9 km/h 60 % 0 mm 341.0 W/m2 CLR
14:33 -10.3 °C -14.6 °C 34256.2 hPa NNE 9 km/h 9 km/h 60 % 0 mm 373.0 W/m2 CLR
14:38 -10.2 °C -14.6 °C 34246 hPa ENE 15 km/h 15 km/h 59 % 0 mm 417.0 W/m2 CLR
14:43 -10.1 °C -14.3 °C 34246 hPa NNE 12.9 km/h 12.9 km/h 60 % 0 mm 784.0 W/m2 CLR
14:48 -9.9 °C -14.3 °C 34235.8 hPa Calm   0.3 km/h 59 % 0 mm 424.0 W/m2 CLR
14:53 -9.9 °C -14.6 °C 34235.8 hPa NE 9 km/h 9 km/h 57 % 0 mm 396.0 W/m2 CLR
14:58 -9.9 °C -14.5 °C 34235.8 hPa ENE 12.9 km/h 12.9 km/h 58 % 0 mm 403.0 W/m2 CLR
15:03 -9.9 °C -14.4 °C 34222.3 hPa ENE 9 km/h 9 km/h 58 % 0 mm 341.0 W/m2 CLR
15:08 -9.9 °C -14.6 °C 34222.3 hPa ENE 15 km/h 15 km/h 57 % 0 mm 450.0 W/m2 CLR
15:13 -9.8 °C -14.4 °C 34212.1 hPa ENE 11.9 km/h 11.9 km/h 58 % 0 mm 701.0 W/m2 CLR
15:18 -9.7 °C -14.2 °C 34212.1 hPa East 20.9 km/h 20.9 km/h 58 % 0 mm 698.0 W/m2 CLR
15:23 -9.6 °C -14.2 °C 34198.6 hPa East 15 km/h 15 km/h 58 % 0 mm 664.0 W/m2 CLR
15:28 -9.4 °C -14.3 °C 34198.6 hPa ESE 20.9 km/h 20.9 km/h 56 % 0 mm 628.0 W/m2 CLR
15:33 -9.4 °C -14.3 °C 34188.4 hPa ESE 23.8 km/h 23.8 km/h 56 % 0 mm 610.0 W/m2 CLR
15:38 -9.3 °C -14.2 °C 34188.4 hPa SE 20.9 km/h 20.9 km/h 56 % 0 mm 598.0 W/m2 CLR
15:43 -9.3 °C -14.3 °C 34188.4 hPa East 26.9 km/h 26.9 km/h 55 % 0 mm 584.0 W/m2 CLR
15:48 -9.3 °C -14.3 °C 34178.3 hPa ENE 20.9 km/h 20.9 km/h 55 % 0 mm 564.0 W/m2 CLR
15:53 -9.2 °C -14.1 °C 34178.3 hPa ENE 23.8 km/h 23.8 km/h 56 % 0 mm 555.0 W/m2 CLR
15:58 -9.1 °C -14 °C 34178.3 hPa East 11.9 km/h 11.9 km/h 56 % 0 mm 548.0 W/m2 CLR
16:03 -9 °C -13.9 °C 34164.7 hPa East 23.8 km/h 23.8 km/h 56 % 0 mm 543.0 W/m2 CLR
16:08 -8.9 °C -14 °C 34154.6 hPa East 20.9 km/h 20.9 km/h 55 % 0 mm 541.0 W/m2 CLR
16:13 -8.9 °C -13.9 °C 34154.6 hPa ESE 20.9 km/h 20.9 km/h 55 % 0 mm 181.0 W/m2 CLR
16:18 -9 °C -13.7 °C 34154.6 hPa East 15 km/h 15 km/h 57 % 0 mm 169.0 W/m2 CLR
16:23 -9 °C -13.6 °C 34144.4 hPa ESE 17.9 km/h 17.9 km/h 58 % 0 mm 193.0 W/m2 CLR
16:28 -8.9 °C -13.2 °C 34144.4 hPa ESE 20.9 km/h 20.9 km/h 60 % 0 mm 225.0 W/m2 CLR
16:33 -8.8 °C -13 °C 34130.9 hPa East 15 km/h 15 km/h 61 % 0 mm 413.0 W/m2 CLR
16:38 -8.7 °C -13.1 °C 34130.9 hPa ESE 23.8 km/h 23.8 km/h 60 % 0 mm 466.0 W/m2 CLR
16:43 -8.7 °C -12.9 °C 34130.9 hPa ESE 11.9 km/h 11.9 km/h 61 % 0 mm 425.0 W/m2 CLR
16:48 -8.6 °C -12.9 °C 34120.7 hPa East 18.2 km/h 18.2 km/h 60 % 0 mm 399.0 W/m2 CLR
16:53 -8.6 °C -12.9 °C 34120.7 hPa ENE 9 km/h 9 km/h 60 % 0 mm 294.0 W/m2 CLR
16:58 -8.6 °C -13 °C 34120.7 hPa ESE 20.9 km/h 20.9 km/h 59 % 0 mm 360.0 W/m2 CLR
17:03 -8.6 °C -13 °C 34120.7 hPa East 23.8 km/h 23.8 km/h 59 % 0 mm 343.0 W/m2 CLR
17:08 -8.6 °C -13.1 °C 34107.2 hPa ESE 25.9 km/h 25.9 km/h 59 % 0 mm 345.0 W/m2 CLR
17:13 -8.7 °C -13.3 °C 34107.2 hPa East 26.9 km/h 26.9 km/h 58 % 0 mm 225.0 W/m2 CLR
17:18 -8.7 °C -13.2 °C 34107.2 hPa ESE 38.8 km/h 38.8 km/h 59 % 0 mm 102.0 W/m2 CLR
17:23 -8.8 °C -13.3 °C 34107.2 hPa East 29.8 km/h 29.8 km/h 59 % 0 mm 95.0 W/m2 CLR
17:28 -8.8 °C -13.2 °C 34107.2 hPa ESE 25.9 km/h 25.9 km/h 59 % 0 mm 274.0 W/m2 CLR
17:33 -8.7 °C -13.3 °C 34107.2 hPa ESE 29.8 km/h 29.8 km/h 58 % 0 mm 251.0 W/m2 CLR
17:38 -8.7 °C -13.2 °C 34107.2 hPa ESE 32.8 km/h 32.8 km/h 58 % 0 mm 272.0 W/m2 CLR
17:43 -8.7 °C -13.4 °C 34107.2 hPa ESE 29.8 km/h 29.8 km/h 57 % 0 mm 243.0 W/m2 CLR
17:48 -8.7 °C -13.4 °C 34107.2 hPa East 29.8 km/h 29.8 km/h 57 % 0 mm 214.0 W/m2 CLR
17:53 -8.8 °C -13.4 °C 34107.2 hPa ESE 29.8 km/h 29.8 km/h 58 % 0 mm 199.0 W/m2 CLR
17:58 -8.8 °C -13.3 °C 34097 hPa ENE 17.9 km/h 17.9 km/h 59 % 0 mm 176.0 W/m2 CLR
18:03 -8.8 °C -13.3 °C 34097 hPa East 23.8 km/h 23.8 km/h 59 % 0 mm 162.0 W/m2 CLR
18:08 -8.8 °C -13.3 °C 34097 hPa East 32.8 km/h 32.8 km/h 59 % 0 mm 153.0 W/m2 CLR
18:13 -8.8 °C -13.4 °C 34097 hPa ESE 26.9 km/h 26.9 km/h 58 % 0 mm 120.0 W/m2 CLR
18:18 -8.9 °C -13.3 °C 34097 hPa ESE 26.9 km/h 26.9 km/h 59 % 0 mm 98.0 W/m2 CLR
18:19 -8.9 °C -13.3 °C 34097 hPa SSE 20.9 km/h 20.9 km/h 59 % 0 mm 97.0 W/m2 CLR
18:24 -9 °C -13.4 °C 34097 hPa ESE 23.8 km/h 23.8 km/h 59 % 0 mm 98.0 W/m2 CLR
18:29 -9.1 °C -13.3 °C 34097 hPa ESE 20.9 km/h 20.9 km/h 60 % 0 mm 69.0 W/m2 FEW
18:34 -9.1 °C -13.3 °C 34086.9 hPa SSE 20.9 km/h 20.9 km/h 61 % 0 mm 54.0 W/m2 SCT
18:39 -9.2 °C -13.2 °C 34086.9 hPa ESE 17.9 km/h 17.9 km/h 62 % 0 mm 44.0 W/m2 BKN
18:44 -9.3 °C -13.3 °C 34086.9 hPa SE 26.9 km/h 26.9 km/h 62 % 0 mm 35.0 W/m2 BKN
18:49 -9.3 °C -13.5 °C 34097 hPa SSE 20.9 km/h 20.9 km/h 61 % 0 mm 26.0 W/m2 BKN
18:54 -9.4 °C -13.4 °C 34097 hPa SE 26.9 km/h 26.9 km/h 62 % 0 mm 19.0 W/m2 BKN
18:59 -9.4 °C -13.4 °C 34097 hPa SE 20.9 km/h 20.9 km/h 62 % 0 mm 12.0 W/m2 BKN
19:04 -9.6 °C -13.4 °C 34097 hPa SE 17.9 km/h 17.9 km/h 63 % 0 mm 7.0 W/m2 BKN
19:09 -9.6 °C -13.5 °C 34097 hPa SE 20.9 km/h 20.9 km/h 63 % 0 mm 5.0 W/m2 OVC
19:14 -9.7 °C -13.4 °C 34097 hPa SSE 23.8 km/h 23.8 km/h 64 % 0 mm 0.0 W/m2 OVC
19:19 -9.8 °C -13.4 °C 34107.2 hPa SE 23.8 km/h 23.8 km/h 65 % 0 mm 0.0 W/m2 OVC
19:24 -9.8 °C -13.3 °C 34107.2 hPa SSE 23.8 km/h 23.8 km/h 66 % 0 mm 0.0 W/m2 CLR
19:29 -9.9 °C -13.4 °C 34107.2 hPa SSE 20.9 km/h 20.9 km/h 66 % 0 mm 0.0 W/m2 CLR
19:34 -10 °C -13.4 °C 34107.2 hPa SE 26.9 km/h 26.9 km/h 67 % 0 mm 0.0 W/m2 CLR
19:39 -10.1 °C -13.4 °C 34107.2 hPa SSE 23.8 km/h 23.8 km/h 67 % 0 mm 0.0 W/m2 CLR
19:44 -10.1 °C -13.4 °C 34107.2 hPa SSE 23.8 km/h 23.8 km/h 67 % 0 mm 0.0 W/m2 CLR
19:49 -10.2 °C -13.5 °C 34107.2 hPa South 20.9 km/h 20.9 km/h 67 % 0 mm 0.0 W/m2 CLR
19:54 -10.2 °C -13.5 °C 34107.2 hPa South 7.7 km/h 7.7 km/h 67 % 0 mm 0.0 W/m2 CLR
19:59 -10.2 °C -13.7 °C 34120.7 hPa SSW 11.9 km/h 11.9 km/h 66 % 0 mm 0.0 W/m2 CLR
20:04 -10.3 °C -13.7 °C 34120.7 hPa South 3.1 km/h   66 % 0 mm 0.0 W/m2 CLR
20:09 -10.3 °C -13.8 °C 34120.7 hPa South 15 km/h 15 km/h 65 % 0 mm 0.0 W/m2 CLR
20:14 -10.2 °C -13.8 °C 34120.7 hPa SSW 9 km/h 9 km/h 65 % 0 mm 0.0 W/m2 CLR
20:18 -10.2 °C -13.8 °C 34120.7 hPa Calm     65 % 0 mm 0.0 W/m2 CLR
20:20 -10.2 °C -13.9 °C 34120.7 hPa SSW 11.9 km/h 11.9 km/h 64 % 0 mm 0.0 W/m2 CLR
20:25 -10.2 °C -14.1 °C 34120.7 hPa SW 9 km/h 9 km/h 63 % 0 mm 0.0 W/m2 CLR
20:26 -10.2 °C -14.1 °C 34120.7 hPa SW 9 km/h 9 km/h 63 % 0 mm 0.0 W/m2 CLR
20:27 -10.2 °C -14.1 °C 34120.7 hPa Calm     63 % 0 mm 0.0 W/m2 CLR
20:29 -10.2 °C -14.1 °C 34120.7 hPa Calm     63 % 0 mm 0.0 W/m2 CLR
20:31 -10.2 °C -14.1 °C 34120.7 hPa Calm     63 % 0 mm 0.0 W/m2 CLR
20:36 -10.3 °C -14.2 °C 34120.7 hPa Calm     63 % 0 mm 0.0 W/m2 CLR
20:37 -10.3 °C -14.2 °C 34120.7 hPa Calm     63 % 0 mm 0.0 W/m2 CLR
20:38 -10.4 °C -14.2 °C 34120.7 hPa Calm     63 % 0 mm 0.0 W/m2 CLR
20:43 -10.6 °C -14.2 °C 34130.9 hPa Calm     65 % 0 mm 0.0 W/m2 CLR
20:48 -10.8 °C -14.2 °C 34130.9 hPa West 3.1 km/h   66 % 0 mm 0.0 W/m2 CLR
20:53 -10.8 °C -14.2 °C 34130.9 hPa Calm     66 % 0 mm 0.0 W/m2 CLR
20:57 -10.7 °C -14.3 °C 34130.9 hPa West 12.9 km/h 12.9 km/h 65 % 0 mm 0.0 W/m2 CLR
21:02 -10.6 °C -14.3 °C 34130.9 hPa Calm     64 % 0 mm 0.0 W/m2 CLR
21:05 -10.5 °C -14.2 °C 34144.4 hPa Calm     64 % 0 mm 0.0 W/m2 CLR
21:10 -10.5 °C -14.3 °C 34144.4 hPa Calm     63 % 0 mm 0.0 W/m2 CLR
21:15 -10.5 °C -14.3 °C 34144.4 hPa SSW 20.8 km/h 20.8 km/h 63 % 0 mm 0.0 W/m2 CLR
21:20 -10.4 °C -14.4 °C 34144.4 hPa WSW 6 km/h   62 % 0 mm 0.0 W/m2 CLR
21:25 -10.5 °C -14.5 °C 34144.4 hPa West 11.9 km/h 11.9 km/h 62 % 0 mm 0.0 W/m2 CLR
21:30 -10.5 °C -14.4 °C 34154.6 hPa Calm     62 % 0 mm 0.0 W/m2 CLR
21:33 -10.5 °C -14.4 °C 34154.6 hPa West 3.1 km/h 3.1 km/h 62 % 0 mm 0.0 W/m2 CLR
21:35 -10.5 °C -14.4 °C 34154.6 hPa WSW 6 km/h 6 km/h 62 % 0 mm 0.0 W/m2 CLR
21:40 -10.5 °C -14.6 °C 34154.6 hPa Calm     61 % 0 mm 0.0 W/m2 CLR
21:45 -10.6 °C -14.6 °C 34154.6 hPa Calm     61 % 0 mm 0.0 W/m2 CLR
21:50 -10.7 °C -14.6 °C 34154.6 hPa NNW 18.2 km/h 18.2 km/h 62 % 0 mm 0.0 W/m2 CLR
21:55 -10.9 °C -14.5 °C 34178.3 hPa NW 32.8 km/h 32.8 km/h 65 % 0 mm 0.0 W/m2 CLR
22:00 -11.1 °C -14.5 °C 34188.4 hPa North 50.7 km/h 50.7 km/h 66 % 0 mm 0.0 W/m2 CLR
22:05 -11.4 °C -14.8 °C 34188.4 hPa North 35.7 km/h 35.7 km/h 66 % 0 mm 0.0 W/m2 CLR
22:08 -11.7 °C -14.9 °C 34188.4 hPa North 47.6 km/h 47.6 km/h 67 % 0 mm 0.0 W/m2 CLR
22:10 -11.8 °C -14.9 °C 34198.6 hPa North 38.8 km/h 38.8 km/h 68 % 0 mm 0.0 W/m2 CLR
22:15 -12.2 °C -15.3 °C 34198.6 hPa NW 44.7 km/h 44.7 km/h 68 % 0 mm 0.0 W/m2 CLR
22:20 -12.4 °C -15.3 °C 34198.6 hPa North 32.8 km/h 32.8 km/h 70 % 0 mm 0.0 W/m2 CLR
22:25 -12.5 °C -15.4 °C 34198.6 hPa North 50.7 km/h 50.7 km/h 70 % 0 mm 0.0 W/m2 CLR
22:30 -12.6 °C -15.5 °C 34198.6 hPa NNW 35.7 km/h 35.7 km/h 70 % 0 mm 0.0 W/m2 CLR
22:35 -12.7 °C -15.5 °C 34198.6 hPa Calm     70 % 0 mm 0.0 W/m2 CLR
22:40 -12.7 °C -15.4 °C 34198.6 hPa Calm     71 % 0 mm 0.0 W/m2 CLR
22:45 -12.7 °C -15.5 °C 34198.6 hPa Calm     71 % 0 mm 0.0 W/m2 CLR
22:50 -12.7 °C -15.5 °C 34212.1 hPa Calm     71 % 0 mm 0.0 W/m2 CLR
22:55 -12.9 °C -15.5 °C 34212.1 hPa Calm     72 % 0 mm 0.0 W/m2 CLR
23:00 -12.9 °C -15.5 °C 34198.6 hPa Calm     73 % 0 mm 0.0 W/m2 CLR
23:05 -13.1 °C -15.6 °C 34212.1 hPa Calm     73 % 0 mm 0.0 W/m2 CLR
23:10 -13.2 °C -15.6 °C 34212.1 hPa Calm     74 % 0 mm 0.0 W/m2 CLR
23:15 -13.2 °C -15.5 °C 34212.1 hPa Calm     75 % 0 mm 0.0 W/m2 CLR
23:20 -13.2 °C -15.5 °C 34212.1 hPa Calm     75 % 0 mm 0.0 W/m2 CLR
23:25 -13.2 °C -15.5 °C 34212.1 hPa Calm     75 % 0 mm 0.0 W/m2 CLR
23:30 -13.2 °C -15.5 °C 34222.3 hPa Calm     75 % 0 mm 0.0 W/m2 CLR
23:35 -13.3 °C -15.7 °C 34222.3 hPa Calm     75 % 0 mm 0.0 W/m2 CLR
23:40 -13.6 °C -15.7 °C 34222.3 hPa Calm     77 % 0 mm 0.0 W/m2 CLR
23:45 -13.6 °C -15.6 °C 34222.3 hPa Calm     78 % 0 mm 0.0 W/m2 CLR
23:50 -13.5 °C -15.5 °C 34222.3 hPa Calm     78 % 0 mm 0.0 W/m2 CLR
23:55 -13.5 °C -15.5 °C 34222.3 hPa Calm     78 % 0 mm 0.0 W/m2 CLR
Lo Temps de Massalio
Compliments of Weather Underground - 1.25 mb